Parksville, Canada
Current Conditions -  °F | °C
As of 1:00 PM on Monday 22 Dec 2014 (Local Time) from CYCD Reporting Station
Overcast Overcast  
Wind Chill: 43°   Ceiling: 12000
Heat Index: 43°   Visibility: 30mi
Dew Point: 39°   Wind: 2mph
Humidity: 87%   Direction: 360°N
Pressure: 30.36"   Gusts: NA
Location:  49.32°N, 124.31°W
Report Text: CYCD 222100Z 36002KT 30SM BKN120 OVC240 06/04 A3036 RMK AC5CI3 SLP282
Loading
Personal Weather Stations






























Interactive Weather Map New forecast layout! Learn more

10-Day Weather Forecast

Advertisements
Track Severe Weather on mobile